Time;durP1;ratioP1;P1;durP2;ratioP2;P2;SDS_P1;SDS_P2;PMS_P1;PMS_P2;Temp;Humidity;BMP_temperature;BMP_pressure;BME280_temperature;BME280_humidity;BME280_pressure;Samples;Min_cycle;Max_cycle;Signal;HPM_P1;HPM_P2
2022/02/22 00:00:41;;;;;;;10.73;5.77;;;;;;;;;;5014516;28;20175;-83
2022/02/22 00:03:07;;;;;;;15.70;6.20;;;;;;;;;;5014839;28;20178;-83
2022/02/22 00:05:33;;;;;;;22.40;7.20;;;2.60;99.90;;;;;;5013780;28;20185;-83
2022/02/22 00:07:59;;;;;;;11.63;5.83;;;;;;;;;;5012933;28;20206;-83
2022/02/22 00:10:25;;;;;;;19.33;6.90;;;;;;;;;;4997237;28;20296;-83
2022/02/22 00:12:51;;;;;;;16.83;7.30;;;;;;;;;;5013503;28;20228;-83
2022/02/22 00:15:17;;;;;;;15.93;6.17;;;2.60;99.90;;;;;;4997323;28;20189;-83
2022/02/22 00:17:43;;;;;;;14.40;6.97;;;3.10;99.90;;;;;;4996899;28;20630;-84
2022/02/22 00:20:10;;;;;;;14.33;6.33;;;2.60;99.90;;;;;;5013550;28;20179;-83
2022/02/22 00:22:39;;;;;;;20.27;7.93;;;2.60;99.90;;;;;;5016003;28;20185;-83
2022/02/22 00:25:06;;;;;;;13.93;7.37;;;1.70;99.90;;;;;;5013851;28;20233;-83
2022/02/22 00:27:32;;;;;;;14.20;6.27;;;2.60;99.90;;;;;;5013367;28;20200;-84
2022/02/22 00:29:58;;;;;;;13.03;4.97;;;2.80;99.90;;;;;;5013294;28;20182;-83
2022/02/22 00:32:23;;;;;;;14.47;6.47;;;2.80;99.90;;;;;;5013194;28;20206;-84
2022/02/22 00:34:50;;;;;;;11.70;5.40;;;;;;;;;;4996835;28;20636;-84
2022/02/22 00:37:15;;;;;;;16.40;5.93;;;2.80;99.90;;;;;;5014090;28;20177;-82
2022/02/22 00:39:41;;;;;;;16.37;6.40;;;3.70;99.90;;;;;;4980355;28;20187;-82
2022/02/22 00:42:07;;;;;;;10.63;5.07;;;2.70;99.90;;;;;;5013107;28;20178;-82
2022/02/22 00:44:33;;;;;;;11.37;5.00;;;2.70;99.90;;;;;;4996777;28;20289;-84
2022/02/22 00:46:59;;;;;;;9.43;5.13;;;2.80;99.90;;;;;;4996240;28;20280;-82
2022/02/22 00:49:25;;;;;;;13.57;5.97;;;;;;;;;;4996605;28;20185;-82
2022/02/22 00:51:51;;;;;;;15.10;6.20;;;;;;;;;;5012531;28;20266;-83
2022/02/22 00:54:16;;;;;;;14.63;6.20;;;2.80;99.90;;;;;;5013837;28;20284;-82
2022/02/22 00:56:44;;;;;;;14.60;5.40;;;3.80;99.90;;;;;;5012360;28;20193;-83
2022/02/22 00:59:10;;;;;;;15.17;7.50;;;;;;;;;;4996350;28;20185;-83
2022/02/22 01:01:36;;;;;;;10.83;5.43;;;;;;;;;;5012558;28;20178;-87
2022/02/22 01:04:02;;;;;;;15.53;6.47;;;2.80;99.90;;;;;;5012708;28;20198;-83
2022/02/22 01:06:28;;;;;;;14.73;5.70;;;2.80;99.90;;;;;;5012497;28;20177;-83
2022/02/22 01:08:53;;;;;;;13.87;6.20;;;3.10;99.90;;;;;;4995873;28;20186;-82
2022/02/22 01:11:19;;;;;;;12.73;5.63;;;2.90;99.90;;;;;;5012608;28;20179;-82
2022/02/22 01:13:44;;;;;;;13.13;5.30;;;2.90;99.90;;;;;;4995775;28;20574;-83
2022/02/22 01:16:11;;;;;;;12.83;6.10;;;;;;;;;;5012375;28;20190;-83
2022/02/22 01:18:37;;;;;;;10.80;5.47;;;;;;;;;;5012173;28;20193;-83
2022/02/22 01:21:02;;;;;;;16.13;6.60;;;3.00;99.90;;;;;;4994708;28;20186;-82
2022/02/22 01:23:28;;;;;;;13.00;6.57;;;;;;;;;;5012060;28;20286;-82
2022/02/22 01:25:56;;;;;;;20.20;6.50;;;;;;;;;;5011588;28;20331;-83
2022/02/22 01:28:22;;;;;;;18.53;6.90;;;;;;;;;;5013498;28;20182;-83
2022/02/22 01:30:48;;;;;;;15.83;5.70;;;;;;;;;;4995728;28;20233;-83
2022/02/22 01:33:14;;;;;;;17.30;6.80;;;;;;;;;;4996028;28;20219;-83
2022/02/22 01:35:40;;;;;;;15.03;5.97;;;3.00;99.90;;;;;;5012145;28;20632;-84
2022/02/22 01:38:06;;;;;;;12.13;6.77;;;3.00;99.90;;;;;;5012056;28;20187;-82
2022/02/22 01:40:32;;;;;;;13.43;5.37;;;;;;;;;;4996005;28;20655;-82
2022/02/22 01:42:59;;;;;;;15.80;5.63;;;3.10;99.90;;;;;;5011911;28;20193;-83
2022/02/22 01:45:25;;;;;;;16.17;5.93;;;4.70;99.90;;;;;;4995993;28;20665;-83
2022/02/22 01:47:50;;;;;;;14.47;5.60;;;3.10;99.90;;;;;;4995642;28;20191;-83
2022/02/22 01:50:18;;;;;;;16.67;5.83;;;4.20;99.90;;;;;;5012319;28;20247;-82
2022/02/22 01:52:44;;;;;;;11.13;4.90;;;;;;;;;;5011675;28;20271;-84
2022/02/22 01:55:11;;;;;;;19.50;6.07;;;3.10;99.90;;;;;;5012388;28;20632;-85
2022/02/22 01:57:37;;;;;;;20.23;4.73;;;3.80;99.90;;;;;;5013265;28;20188;-85
2022/02/22 02:00:06;;;;;;;13.40;5.87;;;3.60;99.90;;;;;;5011713;28;20185;-85
2022/02/22 02:02:32;;;;;;;15.33;5.17;;;;;;;;;;5013479;28;20258;-85
2022/02/22 02:05:01;;;;;;;26.30;12.07;;;3.20;99.90;;;;;;5011693;28;20336;-84
2022/02/22 02:07:27;;;;;;;6.17;3.73;;;1.80;99.90;;;;;;5013097;28;20187;-83
2022/02/22 02:09:52;;;;;;;12.23;5.10;;;5.00;99.90;;;;;;4995305;28;20184;-84
2022/02/22 02:12:18;;;;;;;13.67;5.03;;;3.20;99.90;;;;;;5012012;28;20186;-84
2022/02/22 02:14:44;;;;;;;14.97;5.07;;;3.20;99.90;;;;;;5013207;28;20194;-84
2022/02/22 02:17:09;;;;;;;11.27;5.03;;;3.40;99.90;;;;;;5012588;28;20186;-84
2022/02/22 02:19:35;;;;;;;6.30;3.23;;;;;;;;;;5011774;28;20638;-84
2022/02/22 02:22:01;;;;;;;13.77;5.33;;;3.20;99.90;;;;;;4995345;28;20225;-84
2022/02/22 02:24:28;;;;;;;9.93;4.97;;;3.20;99.90;;;;;;5026682;28;20717;-84
2022/02/22 02:26:55;;;;;;;12.63;5.17;;;3.20;99.90;;;;;;5018112;28;20208;-84
2022/02/22 02:29:23;;;;;;;10.90;4.83;;;3.20;99.90;;;;;;5052596;28;20257;-84
2022/02/22 02:31:51;;;;;;;9.87;4.97;;;;;;;;;;5036028;28;20236;-83
2022/02/22 02:34:20;;;;;;;12.83;4.90;;;3.20;99.90;;;;;;5022240;28;20238;-85
2022/02/22 02:36:45;;;;;;;12.17;5.57;;;3.10;99.90;;;;;;5038341;28;20184;-84
2022/02/22 02:39:12;;;;;;;10.67;5.13;;;3.10;99.90;;;;;;5038250;28;20692;-84
2022/02/22 02:41:39;;;;;;;10.60;5.20;;;;;;;;;;5038030;28;20181;-83
2022/02/22 02:44:13;;;;;;;13.57;6.30;;;3.10;99.90;;;;;;5055556;28;20184;-84
2022/02/22 02:46:40;;;;;;;13.50;3.63;;;3.10;99.90;;;;;;5055725;28;20171;-83
2022/02/22 02:49:08;;;;;;;11.80;5.70;;;3.10;99.90;;;;;;5021424;28;20239;-83
2022/02/22 02:51:34;;;;;;;10.37;4.77;;;;;;;;;;5055969;28;20179;-83
2022/02/22 02:54:01;;;;;;;10.47;4.90;;;;;;;;;;5055593;28;20200;-83
2022/02/22 02:56:27;;;;;;;10.67;4.27;;;3.00;99.90;;;;;;5038113;28;20188;-84
2022/02/22 02:59:00;;;;;;;14.57;5.20;;;3.00;99.90;;;;;;5020942;28;20660;-86
2022/02/22 03:01:28;;;;;;;8.57;4.63;;;3.00;99.90;;;;;;5056024;28;20169;-84
2022/02/22 03:03:54;;;;;;;11.57;5.47;;;3.00;99.90;;;;;;5037493;28;20192;-85
2022/02/22 03:06:20;;;;;;;15.40;4.93;;;2.90;99.90;;;;;;5037409;28;20180;-83
2022/02/22 03:08:47;;;;;;;7.10;3.83;;;;;;;;;;5055569;28;20181;-84
2022/02/22 03:11:13;;;;;;;42.50;16.87;;;2.90;99.90;;;;;;5055310;28;20185;-84
2022/02/22 03:13:39;;;;;;;9.90;5.10;;;;;;;;;;5055613;28;20261;-84
2022/02/22 03:16:06;;;;;;;12.47;5.07;;;2.90;99.90;;;;;;5020917;28;20206;-84
2022/02/22 03:18:32;;;;;;;6.37;3.23;;;4.90;99.90;;;;;;5037564;28;20176;-84
2022/02/22 03:20:58;;;;;;;11.83;4.20;;;2.90;99.90;;;;;;5037280;28;20190;-84
2022/02/22 03:23:24;;;;;;;11.47;4.23;;;;;;;;;;5021077;28;20210;-83
2022/02/22 03:25:50;;;;;;;8.90;4.00;;;;;;;;;;5037225;28;20232;-83
2022/02/22 03:28:17;;;;;;;8.63;4.07;;;2.90;99.90;;;;;;5037161;28;20191;-83
2022/02/22 03:30:43;;;;;;;16.63;4.23;;;;;;;;;;5037862;28;20184;-84
2022/02/22 03:33:10;;;;;;;13.67;4.33;;;;;;;;;;5037013;28;20265;-84
2022/02/22 03:35:36;;;;;;;10.90;3.70;;;;;;;;;;5037405;28;20195;-84
2022/02/22 03:38:03;;;;;;;4.77;2.80;;;;;;;;;;5020787;28;20190;-84
2022/02/22 03:40:29;;;;;;;11.93;3.73;;;3.00;99.90;;;;;;5036923;28;20222;-84
2022/02/22 03:42:54;;;;;;;8.77;3.73;;;3.50;99.90;;;;;;5053749;28;20182;-83
2022/02/22 03:45:20;;;;;;;11.53;3.90;;;;;;;;;;5054465;28;20183;-83
2022/02/22 03:47:47;;;;;;;8.63;4.03;;;;;;;;;;5020711;28;20361;-84
2022/02/22 03:50:14;;;;;;;8.97;4.13;;;3.10;99.90;;;;;;5020273;28;20626;-84
2022/02/22 03:52:41;;;;;;;10.60;3.90;;;3.20;99.90;;;;;;5036903;28;20204;-84
2022/02/22 03:55:08;;;;;;;11.10;3.83;;;3.20;99.90;;;;;;5036713;28;20185;-83
2022/02/22 03:57:35;;;;;;;8.67;3.87;;;5.20;99.90;;;;;;5036999;28;20614;-84
2022/02/22 04:00:03;;;;;;;6.73;3.10;;;3.20;99.90;;;;;;5036541;28;20555;-85
2022/02/22 04:02:30;;;;;;;12.07;4.40;;;3.80;99.90;;;;;;5036660;28;20587;-84
2022/02/22 04:04:56;;;;;;;9.43;3.33;;;3.10;99.90;;;;;;5036400;28;20188;-84
2022/02/22 04:07:22;;;;;;;15.20;4.27;;;3.10;99.90;;;;;;5054703;28;20242;-84
2022/02/22 04:09:47;;;;;;;12.10;4.43;;;3.10;99.90;;;;;;5019820;28;20199;-84
2022/02/22 04:12:15;;;;;;;14.17;4.77;;;;;;;;;;5019684;28;20629;-84
2022/02/22 04:14:41;;;;;;;8.87;4.20;;;;;;;;;;5036909;28;20239;-84
2022/02/22 04:17:07;;;;;;;10.17;3.93;;;3.00;99.90;;;;;;5035980;28;20198;-84
2022/02/22 04:19:33;;;;;;;10.33;4.17;;;3.00;99.90;;;;;;5019737;28;20705;-84
2022/02/22 04:21:59;;;;;;;7.00;3.40;;;;;;;;;;5036154;28;20183;-83
2022/02/22 04:24:25;;;;;;;7.83;3.70;;;;;;;;;;5035429;28;20608;-84
2022/02/22 04:26:51;;;;;;;9.47;3.87;;;2.90;99.90;;;;;;5053700;28;20181;-84
2022/02/22 04:29:17;;;;;;;8.23;4.03;;;2.90;99.90;;;;;;5035950;28;20199;-85
2022/02/22 04:31:42;;;;;;;12.20;4.37;;;3.80;99.90;;;;;;5036067;28;20172;-84
2022/02/22 04:34:09;;;;;;;11.20;4.23;;;3.20;99.90;;;;;;5019176;28;20209;-84
2022/02/22 04:36:35;;;;;;;11.20;4.00;;;2.90;99.90;;;;;;5019138;28;20186;-82
2022/02/22 04:39:03;;;;;;;9.63;4.17;;;2.80;99.90;;;;;;5035973;28;20230;-83
2022/02/22 04:41:29;;;;;;;6.33;3.20;;;2.80;99.90;;;;;;5019289;28;20188;-83
2022/02/22 04:43:54;;;;;;;9.57;3.90;;;2.80;99.90;;;;;;5035972;28;20690;-82
2022/02/22 04:46:20;;;;;;;10.63;4.33;;;;;;;;;;5002857;28;20554;-83
2022/02/22 04:48:46;;;;;;;10.33;4.37;;;;;;;;;;5035615;28;20270;-83
2022/02/22 04:51:12;;;;;;;7.53;3.90;;;2.90;99.90;;;;;;5035220;28;20284;-83
2022/02/22 04:53:38;;;;;;;9.70;3.83;;;2.90;99.90;;;;;;5035304;28;20684;-83
2022/02/22 04:56:04;;;;;;;12.47;4.60;;;2.90;99.90;;;;;;5035366;28;20194;-83
2022/02/22 04:58:29;;;;;;;13.57;3.97;;;4.10;99.90;;;;;;5019447;28;20616;-82
2022/02/22 05:00:55;;;;;;;9.43;4.67;;;2.80;99.90;;;;;;5002769;28;20237;-83
2022/02/22 05:03:21;;;;;;;12.07;4.10;;;3.70;99.90;;;;;;5018858;28;20180;-83
2022/02/22 05:05:49;;;;;;;9.43;4.17;;;3.90;99.90;;;;;;5035527;28;20188;-82
2022/02/22 05:08:17;;;;;;;10.13;3.60;;;3.80;99.90;;;;;;5052794;28;20639;-82
2022/02/22 05:10:43;;;;;;;8.53;3.80;;;;;;;;;;5018958;28;20537;-83
2022/02/22 05:13:09;;;;;;;11.00;3.87;;;;;;;;;;5035357;28;20212;-82
2022/02/22 05:15:35;;;;;;;10.43;4.27;;;3.10;99.90;;;;;;5035149;28;20590;-82
2022/02/22 05:18:01;;;;;;;9.57;3.70;;;4.10;99.90;;;;;;5002483;28;20306;-82
2022/02/22 05:20:27;;;;;;;6.53;3.23;;;3.20;99.90;;;;;;5052607;28;20647;-82
2022/02/22 05:22:53;;;;;;;4.63;3.03;;;3.30;99.90;;;;;;5052797;28;20656;-83
2022/02/22 05:25:19;;;;;;;7.30;3.10;;;4.80;99.90;;;;;;5052383;28;20223;-83
2022/02/22 05:27:45;;;;;;;4.10;2.87;;;3.50;99.90;;;;;;5035297;28;20616;-83
2022/02/22 05:30:13;;;;;;;8.07;2.90;;;3.50;99.90;;;;;;5035005;28;20189;-83
2022/02/22 05:32:40;;;;;;;7.50;2.87;;;;;;;;;;5052684;28;20754;-82
2022/02/22 05:35:07;;;;;;;9.60;3.00;;;3.60;99.90;;;;;;5034661;28;20190;-83
2022/02/22 05:37:34;;;;;;;6.67;3.33;;;3.60;99.90;;;;;;5052712;28;20244;-83
2022/02/22 05:40:00;;;;;;;7.23;3.53;;;3.70;99.90;;;;;;5018827;28;20186;-83
2022/02/22 05:42:28;;;;;;;8.93;3.43;;;4.30;99.90;;;;;;5018790;28;20213;-83
2022/02/22 05:44:55;;;;;;;10.47;4.13;;;3.70;99.90;;;;;;5035407;28;20183;-84
2022/02/22 05:47:21;;;;;;;4.40;2.80;;;;;;;;;;5034857;28;20614;-83
2022/02/22 05:49:48;;;;;;;5.87;2.97;;;;;;;;;;5018454;28;20192;-83
2022/02/22 05:52:14;;;;;;;9.73;3.60;;;3.60;99.90;;;;;;5034284;28;20612;-84
2022/02/22 05:54:40;;;;;;;7.67;3.57;;;3.60;99.90;;;;;;5010426;28;20211;-85
2022/02/22 05:57:06;;;;;;;8.93;3.87;;;;;;;;;;5042645;28;20572;-85
2022/02/22 05:59:32;;;;;;;6.90;3.40;;;3.60;99.90;;;;;;5031864;28;20696;-84
2022/02/22 06:01:58;;;;;;;8.93;3.93;;;3.50;99.90;;;;;;5028298;28;20184;-83
2022/02/22 06:04:26;;;;;;;10.63;3.60;;;3.40;99.90;;;;;;5016077;28;20196;-83
2022/02/22 06:06:52;;;;;;;11.70;4.43;;;;;;;;;;5046889;28;20663;-82
2022/02/22 06:09:18;;;;;;;9.83;3.97;;;3.40;99.90;;;;;;5024749;28;20200;-88
2022/02/22 06:11:44;;;;;;;6.97;3.77;;;;;;;;;;5023949;28;20544;-84
2022/02/22 06:14:10;;;;;;;7.77;2.90;;;3.50;99.90;;;;;;5007998;28;20683;-84
2022/02/22 06:16:36;;;;;;;9.93;3.90;;;;;;;;;;5028603;28;20192;-83
2022/02/22 06:19:02;;;;;;;10.43;4.07;;;3.60;99.90;;;;;;5020464;28;20200;-84
2022/02/22 06:21:28;;;;;;;9.50;4.23;;;3.50;99.90;;;;;;5027523;28;20672;-88
2022/02/22 06:23:54;;;;;;;7.60;3.40;;;;;;;;;;5028354;28;20248;-84
2022/02/22 06:26:20;;;;;;;11.00;4.20;;;3.50;99.90;;;;;;5035944;28;20187;-83
2022/02/22 06:28:46;;;;;;;6.47;3.83;;;3.50;99.90;;;;;;5054216;28;20190;-85
2022/02/22 06:31:13;;;;;;;6.23;3.20;;;3.50;99.90;;;;;;5044899;28;20194;-83
2022/02/22 06:33:39;;;;;;;5.93;3.00;;;;;;;;;;5051939;28;20232;-84
2022/02/22 06:36:05;;;;;;;7.03;3.63;;;3.60;99.90;;;;;;5018716;28;20646;-84
2022/02/22 06:38:31;;;;;;;5.27;3.00;;;;;;;;;;5038040;28;20195;-83
2022/02/22 06:40:57;;;;;;;5.00;2.73;;;3.80;99.90;;;;;;5041202;28;20214;-85
2022/02/22 06:43:22;;;;;;;6.17;3.10;;;3.80;99.90;;;;;;5035139;28;20648;-84
2022/02/22 06:45:49;;;;;;;5.33;2.90;;;4.00;99.90;;;;;;5041238;28;20750;-83
2022/02/22 06:48:15;;;;;;;4.63;3.07;;;3.90;99.90;;;;;;5046246;28;20253;-82
2022/02/22 06:50:42;;;;;;;2.53;2.20;;;4.00;99.90;;;;;;5046949;28;20196;-83
2022/02/22 06:53:08;;;;;;;4.77;2.87;;;;;;;;;;5034083;28;20213;-82
2022/02/22 06:55:34;;;;;;;4.93;2.70;;;3.80;99.90;;;;;;5021251;28;20278;-84
2022/02/22 06:58:06;;;;;;;7.30;2.63;;;3.90;99.90;;;;;;5015094;28;20279;-84
2022/02/22 07:00:33;;;;;;;4.17;2.80;;;4.00;99.90;;;;;;5036644;28;20192;-83
2022/02/22 07:02:59;;;;;;;4.13;2.60;;;3.90;99.90;;;;;;5036725;28;20194;-83
2022/02/22 07:05:25;;;;;;;4.90;2.60;;;3.90;99.90;;;;;;5036310;28;20201;-83
2022/02/22 07:07:51;;;;;;;3.43;1.90;;;;;;;;;;5003188;28;20194;-87
2022/02/22 07:10:18;;;;;;;3.33;2.17;;;4.00;99.90;;;;;;5052834;28;20195;-86
2022/02/22 07:12:44;;;;;;;8.80;2.50;;;4.10;99.90;;;;;;5044647;28;20191;-84
2022/02/22 07:15:10;;;;;;;2.00;1.70;;;4.10;99.90;;;;;;5020372;28;20192;-85
2022/02/22 07:17:50;;;;;;;6.23;2.30;;;4.20;99.90;;;;;;5030787;28;20275;-86
2022/02/22 07:20:17;;;;;;;4.33;2.47;;;5.10;99.90;;;;;;5029632;28;20199;-85
2022/02/22 07:22:44;;;;;;;6.13;2.17;;;4.20;99.90;;;;;;5054123;28;20186;-85
2022/02/22 07:25:20;;;;;;;2.60;2.00;;;4.20;99.90;;;;;;5020309;28;20239;-84
2022/02/22 07:27:46;;;;;;;4.13;2.27;;;4.20;99.90;;;;;;5037762;28;20248;-84
2022/02/22 07:30:14;;;;;;;5.60;2.53;;;4.80;99.90;;;;;;5036481;28;20278;-85
2022/02/22 07:32:41;;;;;;;5.47;2.60;;;4.20;99.90;;;;;;5026158;28;20210;-86
2022/02/22 07:35:08;;;;;;;3.80;2.30;;;4.10;99.90;;;;;;5026421;28;20195;-85
2022/02/22 07:37:36;;;;;;;4.17;2.27;;;4.20;99.90;;;;;;5018615;28;20191;-86
2022/02/22 07:40:02;;;;;;;7.67;2.30;;;;;;;;;;5047134;28;20191;-85
2022/02/22 07:42:28;;;;;;;5.67;2.70;;;4.20;99.90;;;;;;5034006;28;20279;-88
2022/02/22 07:44:54;;;;;;;3.00;1.87;;;4.20;99.90;;;;;;5033692;28;20298;-86
2022/02/22 07:47:19;;;;;;;7.90;2.37;;;4.30;99.90;;;;;;5035758;28;20655;-86
2022/02/22 07:49:45;;;;;;;5.10;2.30;;;4.30;99.90;;;;;;5039642;28;20692;-85
2022/02/22 07:52:11;;;;;;;7.00;3.13;;;4.40;99.90;;;;;;5044251;28;20187;-84
2022/02/22 07:54:37;;;;;;;8.07;2.37;;;;;;;;;;5022882;28;20276;-85
2022/02/22 07:57:03;;;;;;;2.13;1.90;;;4.40;99.90;;;;;;5015433;28;20190;-85
2022/02/22 07:59:29;;;;;;;3.27;1.90;;;4.40;99.90;;;;;;5048323;28;20217;-86
2022/02/22 08:01:55;;;;;;;4.70;2.50;;;;;;;;;;5033988;28;20651;-84
2022/02/22 08:04:26;;;;;;;4.10;1.70;;;;;;;;;;5013892;28;20210;-85
2022/02/22 08:06:55;;;;;;;4.60;1.80;;;4.50;99.90;;;;;;5034781;28;20181;-84
2022/02/22 08:09:22;;;;;;;6.70;2.80;;;4.40;99.90;;;;;;5020237;28;20708;-85
2022/02/22 08:11:48;;;;;;;6.77;2.70;;;;;;;;;;5036270;28;20247;-83
2022/02/22 08:14:14;;;;;;;5.23;3.40;;;4.60;99.90;;;;;;5019486;28;20209;-84
2022/02/22 08:16:40;;;;;;;3.43;2.23;;;5.10;99.90;;;;;;5056868;28;20186;-86
2022/02/22 08:19:06;;;;;;;5.97;2.07;;;4.80;99.90;;;;;;5042496;28;20192;-86
2022/02/22 08:21:32;;;;;;;8.33;5.10;;;;;;;;;;5054383;28;20789;-85
2022/02/22 08:23:57;;;;;;;9.40;4.60;;;4.80;99.90;;;;;;5024747;28;20319;-85
2022/02/22 08:26:23;;;;;;;7.23;3.63;;;4.80;99.90;;;;;;5016507;28;20216;-85
2022/02/22 08:28:49;;;;;;;4.90;2.20;;;;;;;;;;4999731;28;20184;-86
2022/02/22 08:31:15;;;;;;;5.10;2.57;;;4.90;99.90;;;;;;5031506;28;20273;-86
2022/02/22 08:33:41;;;;;;;4.00;2.70;;;5.50;99.90;;;;;;5035725;28;20681;-84
2022/02/22 08:36:07;;;;;;;4.17;2.57;;;;;;;;;;5019626;28;20373;-84
2022/02/22 08:38:32;;;;;;;4.07;1.97;;;4.80;99.90;;;;;;5054730;28;20199;-88
2022/02/22 08:40:59;;;;;;;5.63;2.50;;;4.90;99.90;;;;;;5053999;28;20270;-85
2022/02/22 08:43:24;;;;;;;4.30;2.60;;;5.40;99.90;;;;;;5016484;28;20772;-84
2022/02/22 08:45:50;;;;;;;4.80;2.90;;;4.80;99.90;;;;;;5043208;28;20190;-84
2022/02/22 08:48:16;;;;;;;3.90;2.67;;;4.80;99.90;;;;;;5018401;28;20188;-85
2022/02/22 08:50:42;;;;;;;4.73;3.10;;;;;;;;;;5035934;28;20225;-84
2022/02/22 08:53:08;;;;;;;5.07;3.17;;;4.70;99.90;;;;;;5053381;28;20286;-85
2022/02/22 08:55:34;;;;;;;6.30;2.97;;;4.60;99.90;;;;;;5053455;28;20187;-85
2022/02/22 08:58:01;;;;;;;3.53;2.63;;;5.00;99.90;;;;;;5041678;28;20281;-84
2022/02/22 09:00:28;;;;;;;4.23;2.83;;;4.70;99.90;;;;;;5051494;28;20686;-85
2022/02/22 09:02:57;;;;;;;7.67;3.00;;;4.80;99.90;;;;;;5053366;28;20194;-85
2022/02/22 09:05:30;;;;;;;5.00;3.10;;;5.00;99.90;;;;;;5035867;28;20199;-85
2022/02/22 09:07:56;;;;;;;4.97;3.40;;;;;;;;;;5049994;28;20281;-84
2022/02/22 09:10:23;;;;;;;4.23;2.47;;;5.10;99.90;;;;;;5020960;28;20690;-85
2022/02/22 09:12:49;;;;;;;7.93;2.60;;;;;;;;;;5052944;28;20188;-83
2022/02/22 09:15:16;;;;;;;4.27;2.83;;;5.20;99.90;;;;;;5039341;28;20191;-85
2022/02/22 09:17:43;;;;;;;2.73;2.23;;;;;;;;;;5034874;28;20184;-84
2022/02/22 09:20:11;;;;;;;4.53;3.40;;;4.90;99.90;;;;;;5034939;28;20180;-84
2022/02/22 09:22:37;;;;;;;6.57;2.83;;;4.70;99.90;;;;;;5030987;28;20194;-85
2022/02/22 09:25:05;;;;;;;4.27;2.90;;;5.00;99.90;;;;;;5015436;28;20232;-84
2022/02/22 09:27:31;;;;;;;4.90;2.93;;;4.70;99.90;;;;;;5016618;28;20192;-84
2022/02/22 09:29:57;;;;;;;6.10;2.47;;;;;;;;;;4999525;28;20184;-83
2022/02/22 09:32:24;;;;;;;5.53;3.30;;;;;;;;;;5033699;28;20187;-84
2022/02/22 09:34:50;;;;;;;5.80;3.43;;;;;;;;;;5033064;28;20196;-82
2022/02/22 09:37:16;;;;;;;10.93;2.57;;;;;;;;;;5015565;28;20207;-83
2022/02/22 09:39:42;;;;;;;5.83;2.87;;;;;;;;;;5015437;28;20194;-83
2022/02/22 09:42:09;;;;;;;8.27;3.13;;;5.10;99.90;;;;;;5015132;28;20295;-82
2022/02/22 09:44:39;;;;;;;4.47;3.07;;;5.10;99.90;;;;;;5015877;28;20227;-83
2022/02/22 09:47:06;;;;;;;5.60;3.00;;;5.10;99.90;;;;;;4999304;28;20282;-84
2022/02/22 09:49:32;;;;;;;5.97;3.37;;;;;;;;;;5016024;28;20270;-82
2022/02/22 09:51:59;;;;;;;5.87;2.37;;;5.30;99.90;;;;;;5015563;28;20187;-83
2022/02/22 09:54:26;;;;;;;7.63;3.97;;;5.20;99.90;;;;;;5016298;28;20214;-82
2022/02/22 09:56:52;;;;;;;6.20;2.90;;;;;;;;;;4999391;28;20200;-82
2022/02/22 09:59:21;;;;;;;8.33;3.90;;;;;;;;;;5033178;28;20180;-84
2022/02/22 10:01:51;;;;;;;6.23;3.50;;;4.90;99.90;;;;;;5015264;28;20181;-85
2022/02/22 10:04:17;;;;;;;5.43;3.97;;;4.90;99.90;;;;;;5015421;28;20219;-83
2022/02/22 10:06:42;;;;;;;8.23;3.87;;;4.90;99.90;;;;;;5015909;28;20208;-83
2022/02/22 10:09:11;;;;;;;9.57;3.90;;;4.80;99.90;;;;;;5015853;28;20599;-84
2022/02/22 10:11:48;;;;;;;5.60;3.10;;;4.80;99.90;;;;;;4999823;28;20597;-84
2022/02/22 10:14:32;;;;;;;5.67;3.20;;;4.80;99.90;;;;;;5015762;28;20269;-85
2022/02/22 10:16:58;;;;;;;7.23;3.27;;;4.80;99.90;;;;;;5015563;28;20636;-83
2022/02/22 10:19:27;;;;;;;4.17;2.50;;;4.80;99.90;;;;;;5033340;28;20629;-84
2022/02/22 10:21:56;;;;;;;6.53;3.80;;;4.70;99.90;;;;;;5015669;28;20632;-84
2022/02/22 10:24:24;;;;;;;6.57;3.17;;;4.70;99.90;;;;;;5032823;28;20224;-84
2022/02/22 10:30:40;;;;;;;5.47;3.10;;;4.70;99.90;;;;;;5032592;28;20182;-83
2022/02/22 10:33:12;;;;;;;3.90;2.90;;;4.70;99.90;;;;;;5032777;28;20207;-84
2022/02/22 10:35:39;;;;;;;12.70;2.80;;;;;;;;;;5015484;28;20188;-84
2022/02/22 10:38:22;;;;;;;6.13;2.67;;;5.00;99.90;;;;;;5032595;28;20185;-84
2022/02/22 10:40:57;;;;;;;11.07;5.87;;;5.10;99.90;;;;;;5032794;28;20186;-83
2022/02/22 10:43:33;;;;;;;6.00;3.70;;;5.20;99.90;;;;;;5032783;28;20274;-84
2022/02/22 10:46:02;;;;;;;4.30;3.00;;;5.30;99.90;;;;;;5014837;28;20206;-82
2022/02/22 10:48:33;;;;;;;5.87;3.73;;;5.30;99.90;;;;;;5032907;28;20637;-84
2022/02/22 10:51:00;;;;;;;8.17;3.43;;;5.30;99.90;;;;;;5014918;28;20263;-83
2022/02/22 10:53:29;;;;;;;6.13;3.67;;;5.40;99.90;;;;;;5035073;28;20219;-83
2022/02/22 10:55:55;;;;;;;7.53;3.50;;;;;;;;;;5036269;28;20192;-84
2022/02/22 10:58:21;;;;;;;6.97;2.90;;;;;;;;;;5036219;28;20560;-83
2022/02/22 11:00:47;;;;;;;6.53;2.63;;;;;;;;;;5002356;28;20193;-83
2022/02/22 11:03:14;;;;;;;5.33;2.83;;;;;;;;;;5018376;28;20533;-83
2022/02/22 11:05:40;;;;;;;4.03;3.13;;;;;;;;;;5018496;28;20181;-84
2022/02/22 11:08:06;;;;;;;6.30;3.00;;;;;;;;;;5018511;28;20185;-83
2022/02/22 11:10:32;;;;;;;6.57;3.00;;;;;;;;;;5018629;28;20660;-82
2022/02/22 11:13:00;;;;;;;4.60;2.90;;;;;;;;;;5018295;28;20223;-83
2022/02/22 11:15:37;;;;;;;8.37;2.87;;;5.60;99.90;;;;;;5018013;28;20621;-84
2022/02/22 11:18:18;;;;;;;7.97;3.43;;;5.80;99.90;;;;;;5002329;28;20188;-84
2022/02/22 11:20:44;;;;;;;8.13;5.10;;;5.70;99.90;;;;;;5017737;28;20219;-84
2022/02/22 11:23:15;;;;;;;8.63;3.60;;;5.70;99.90;;;;;;5001909;28;20188;-84
2022/02/22 11:25:42;;;;;;;4.13;2.50;;;5.70;99.90;;;;;;5035172;28;20358;-83
2022/02/22 11:28:12;;;;;;;2.27;1.70;;;5.70;99.90;;;;;;5001997;28;20177;-87
2022/02/22 11:30:39;;;;;;;4.57;2.77;;;5.40;99.90;;;;;;5017924;28;20195;-83
2022/02/22 11:33:10;;;;;;;5.77;3.10;;;5.40;99.90;;;;;;5035556;28;20207;-84
2022/02/22 11:35:52;;;;;;;3.50;2.87;;;5.10;99.90;;;;;;5017751;28;20185;-83
2022/02/22 11:38:18;;;;;;;5.90;2.90;;;;;;;;;;5018124;28;20193;-82
2022/02/22 11:40:48;;;;;;;8.37;3.57;;;4.70;99.90;;;;;;5001544;28;20180;-83
2022/02/22 11:43:17;;;;;;;5.73;3.57;;;4.70;99.90;;;;;;5020372;28;20203;-84
2022/02/22 11:45:45;;;;;;;3.83;3.20;;;4.80;99.90;;;;;;5018232;28;20223;-84
2022/02/22 11:48:14;;;;;;;5.60;3.30;;;5.10;99.90;;;;;;5001455;28;20326;-85
2022/02/22 11:50:40;;;;;;;4.07;2.93;;;;;;;;;;5035640;28;20177;-84
2022/02/22 11:53:19;;;;;;;5.63;2.97;;;5.40;99.90;;;;;;5001699;28;20242;-84
2022/02/22 11:55:44;;;;;;;5.60;3.23;;;5.60;99.90;;;;;;5018518;28;20185;-84
2022/02/22 11:58:22;;;;;;;5.27;3.10;;;5.60;99.90;;;;;;5001394;28;20550;-84
2022/02/22 12:00:54;;;;;;;4.73;2.77;;;5.60;99.90;;;;;;5018690;28;20572;-85
2022/02/22 12:03:22;;;;;;;7.70;4.07;;;5.60;99.90;;;;;;5017522;28;20181;-83
2022/02/22 12:06:01;;;;;;;5.97;3.33;;;5.60;99.90;;;;;;5017119;28;20183;-84
2022/02/22 12:08:28;;;;;;;3.80;3.13;;;;;;;;;;5017602;28;20230;-84
2022/02/22 12:11:05;;;;;;;3.37;2.87;;;5.60;99.90;;;;;;5017210;28;20633;-82
2022/02/22 12:13:45;;;;;;;7.83;3.60;;;5.60;99.90;;;;;;5035687;28;20206;-82
2022/02/22 12:16:20;;;;;;;6.90;3.33;;;5.60;99.90;;;;;;5034641;28;20176;-83
2022/02/22 12:18:48;;;;;;;5.00;3.60;;;5.80;99.90;;;;;;5034748;28;20183;-82
2022/02/22 12:21:15;;;;;;;5.03;3.17;;;;;;;;;;5017740;28;20234;-82
2022/02/22 12:23:42;;;;;;;5.13;3.30;;;5.80;99.90;;;;;;5000714;28;20599;-84
2022/02/22 12:26:12;;;;;;;6.47;3.57;;;5.80;99.90;;;;;;5000596;28;20246;-83
2022/02/22 12:29:03;;;;;;;7.30;3.13;;;5.80;99.90;;;;;;5035000;28;20176;-85
2022/02/22 12:31:31;;;;;;;5.53;2.83;;;;;;;;;;5017327;28;20210;-85
2022/02/22 12:34:07;;;;;;;8.60;3.73;;;5.80;99.90;;;;;;5016575;28;20227;-84
2022/02/22 12:36:34;;;;;;;6.70;3.13;;;;;;;;;;5002078;28;20188;-85
2022/02/22 12:39:07;;;;;;;6.13;2.67;;;5.80;99.90;;;;;;5017527;28;20185;-85
2022/02/22 12:41:38;;;;;;;5.97;3.63;;;6.00;99.90;;;;;;5034203;28;20168;-84
2022/02/22 12:44:14;;;;;;;6.77;3.53;;;6.00;99.90;;;;;;5017870;28;20177;-85
2022/02/22 12:46:41;;;;;;;7.57;3.03;;;6.20;99.90;;;;;;5017792;28;20180;-84
2022/02/22 12:49:10;;;;;;;9.60;3.77;;;6.20;99.90;;;;;;5017776;28;20181;-84
2022/02/22 12:51:36;;;;;;;8.67;3.90;;;;;;;;;;5003380;28;20184;-84
2022/02/22 12:54:11;;;;;;;6.47;2.93;;;6.20;99.90;;;;;;5017300;28;20244;-84
2022/02/22 12:56:44;;;;;;;6.20;3.33;;;6.10;99.90;;;;;;5018321;28;20184;-85
2022/02/22 12:59:15;;;;;;;10.47;3.60;;;6.10;99.90;;;;;;5020484;28;20250;-85
2022/02/22 13:01:42;;;;;;;8.30;3.50;;;6.00;99.90;;;;;;5020260;28;20196;-84
2022/02/22 13:04:13;;;;;;;9.90;4.33;;;5.90;99.90;;;;;;5036113;28;20177;-85
2022/02/22 13:06:51;;;;;;;7.83;3.60;;;5.80;99.90;;;;;;5018797;28;20180;-83
2022/02/22 13:09:17;;;;;;;11.93;3.80;;;5.80;99.90;;;;;;5036178;28;20172;-83
2022/02/22 13:11:43;;;;;;;7.03;3.33;;;5.90;99.90;;;;;;5003406;28;20172;-83
2022/02/22 13:14:11;;;;;;;9.33;3.37;;;5.90;99.90;;;;;;5028653;28;20203;-86
2022/02/22 13:17:03;;;;;;;11.87;4.10;;;5.80;99.90;;;;;;5025492;28;20187;-83
2022/02/22 13:19:37;;;;;;;8.73;4.00;;;5.80;99.90;;;;;;5054640;28;20242;-83
2022/02/22 13:22:09;;;;;;;7.83;4.03;;;5.50;99.90;;;;;;5038077;28;20178;-84
2022/02/22 13:24:41;;;;;;;8.07;3.37;;;5.70;99.90;;;;;;5026009;28;20224;-84